sensor_id;sensor_type;location;lat;lon;timestamp;pressure;altitude;pressure_sealevel;temperature;humidity
49455;BME280;69710;64.656;21.218;2023-07-13T00:00:05;100960.34;;;15.30;100.00
49455;BME280;69710;64.656;21.218;2023-07-13T00:02:33;100953.42;;;15.06;100.00
49455;BME280;69710;64.656;21.218;2023-07-13T00:05:00;100951.26;;;15.11;100.00
49455;BME280;69710;64.656;21.218;2023-07-13T00:07:33;100944.68;;;15.25;100.00
49455;BME280;69710;64.656;21.218;2023-07-13T00:10:02;100944.59;;;14.68;100.00
49455;BME280;69710;64.656;21.218;2023-07-13T00:12:31;100945.65;;;14.97;100.00
49455;BME280;69710;64.656;21.218;2023-07-13T00:15:02;100946.70;;;14.73;100.00
49455;BME280;69710;64.656;21.218;2023-07-13T00:17:30;100940.99;;;14.85;100.00
49455;BME280;69710;64.656;21.218;2023-07-13T00:19:58;100944.37;;;14.69;100.00
49455;BME280;69710;64.656;21.218;2023-07-13T00:22:26;100948.12;;;15.09;100.00
49455;BME280;69710;64.656;21.218;2023-07-13T00:24:54;100942.50;;;15.17;100.00
49455;BME280;69710;64.656;21.218;2023-07-13T00:27:23;100950.26;;;14.95;100.00
49455;BME280;69710;64.656;21.218;2023-07-13T00:29:51;100947.44;;;14.48;100.00
49455;BME280;69710;64.656;21.218;2023-07-13T00:32:19;100948.36;;;14.25;100.00
49455;BME280;69710;64.656;21.218;2023-07-13T00:34:47;100947.91;;;14.47;100.00
49455;BME280;69710;64.656;21.218;2023-07-13T00:37:15;100949.71;;;14.71;100.00
49455;BME280;69710;64.656;21.218;2023-07-13T00:39:42;100948.00;;;14.53;100.00
49455;BME280;69710;64.656;21.218;2023-07-13T00:42:10;100950.81;;;14.71;100.00
49455;BME280;69710;64.656;21.218;2023-07-13T00:44:38;100946.99;;;14.71;100.00
49455;BME280;69710;64.656;21.218;2023-07-13T00:47:06;100949.74;;;15.00;100.00
49455;BME280;69710;64.656;21.218;2023-07-13T00:49:35;100953.19;;;14.82;100.00
49455;BME280;69710;64.656;21.218;2023-07-13T00:52:07;100943.73;;;15.01;100.00
49455;BME280;69710;64.656;21.218;2023-07-13T00:54:39;100941.37;;;15.18;100.00
49455;BME280;69710;64.656;21.218;2023-07-13T00:57:11;100939.06;;;15.15;100.00
49455;BME280;69710;64.656;21.218;2023-07-13T00:59:42;100935.53;;;15.19;100.00
49455;BME280;69710;64.656;21.218;2023-07-13T01:02:11;100930.35;;;15.48;100.00
49455;BME280;69710;64.656;21.218;2023-07-13T01:04:39;100933.20;;;15.78;100.00
49455;BME280;69710;64.656;21.218;2023-07-13T01:07:07;100928.59;;;15.61;100.00
49455;BME280;69710;64.656;21.218;2023-07-13T01:09:35;100931.16;;;15.45;100.00
49455;BME280;69710;64.656;21.218;2023-07-13T01:12:03;100928.63;;;15.61;100.00
49455;BME280;69710;64.656;21.218;2023-07-13T01:14:31;100918.30;;;15.94;100.00
49455;BME280;69710;64.656;21.218;2023-07-13T01:16:59;100916.32;;;15.61;100.00
49455;BME280;69710;64.656;21.218;2023-07-13T01:19:33;100924.81;;;15.84;100.00
49455;BME280;69710;64.656;21.218;2023-07-13T01:22:03;100919.39;;;15.57;100.00
49455;BME280;69710;64.656;21.218;2023-07-13T01:24:31;100915.09;;;15.62;100.00
49455;BME280;69710;64.656;21.218;2023-07-13T01:26:59;100911.16;;;15.69;100.00
49455;BME280;69710;64.656;21.218;2023-07-13T01:29:26;100910.91;;;15.51;100.00
49455;BME280;69710;64.656;21.218;2023-07-13T01:31:54;100908.64;;;15.19;100.00
49455;BME280;69710;64.656;21.218;2023-07-13T01:34:21;100913.44;;;15.25;100.00
49455;BME280;69710;64.656;21.218;2023-07-13T01:36:48;100913.07;;;14.98;100.00
49455;BME280;69710;64.656;21.218;2023-07-13T01:39:16;100910.38;;;14.76;100.00
49455;BME280;69710;64.656;21.218;2023-07-13T01:41:44;100918.61;;;14.34;100.00
49455;BME280;69710;64.656;21.218;2023-07-13T01:44:12;100914.04;;;14.81;100.00
49455;BME280;69710;64.656;21.218;2023-07-13T01:46:40;100914.69;;;14.69;100.00
49455;BME280;69710;64.656;21.218;2023-07-13T01:49:08;100913.41;;;14.80;100.00
49455;BME280;69710;64.656;21.218;2023-07-13T01:51:36;100916.61;;;14.36;100.00
49455;BME280;69710;64.656;21.218;2023-07-13T01:54:04;100911.30;;;14.42;100.00
49455;BME280;69710;64.656;21.218;2023-07-13T01:56:32;100911.08;;;14.26;100.00
49455;BME280;69710;64.656;21.218;2023-07-13T01:59:00;100913.77;;;14.14;100.00
49455;BME280;69710;64.656;21.218;2023-07-13T02:01:27;100913.20;;;14.04;100.00
49455;BME280;69710;64.656;21.218;2023-07-13T02:03:56;100912.62;;;14.21;100.00
49455;BME280;69710;64.656;21.218;2023-07-13T02:06:24;100912.34;;;14.72;100.00
49455;BME280;69710;64.656;21.218;2023-07-13T02:08:52;100907.53;;;14.14;100.00
49455;BME280;69710;64.656;21.218;2023-07-13T02:11:19;100902.68;;;14.41;100.00
49455;BME280;69710;64.656;21.218;2023-07-13T02:13:47;100904.69;;;14.19;100.00
49455;BME280;69710;64.656;21.218;2023-07-13T02:16:15;100907.54;;;14.67;100.00
49455;BME280;69710;64.656;21.218;2023-07-13T02:18:42;100904.29;;;14.49;100.00
49455;BME280;69710;64.656;21.218;2023-07-13T02:21:10;100905.01;;;14.64;100.00
49455;BME280;69710;64.656;21.218;2023-07-13T02:23:38;100897.00;;;14.51;100.00
49455;BME280;69710;64.656;21.218;2023-07-13T02:26:06;100892.96;;;15.03;100.00
49455;BME280;69710;64.656;21.218;2023-07-13T02:28:34;100893.82;;;14.95;100.00
49455;BME280;69710;64.656;21.218;2023-07-13T02:31:05;100888.56;;;15.29;100.00
49455;BME280;69710;64.656;21.218;2023-07-13T02:33:33;100884.08;;;15.24;100.00
49455;BME280;69710;64.656;21.218;2023-07-13T02:36:00;100880.99;;;15.27;100.00
49455;BME280;69710;64.656;21.218;2023-07-13T02:38:27;100881.68;;;15.46;100.00
49455;BME280;69710;64.656;21.218;2023-07-13T02:40:55;100881.12;;;15.02;100.00
49455;BME280;69710;64.656;21.218;2023-07-13T02:43:23;100881.02;;;14.50;100.00
49455;BME280;69710;64.656;21.218;2023-07-13T02:45:51;100875.78;;;14.11;100.00
49455;BME280;69710;64.656;21.218;2023-07-13T02:48:19;100877.62;;;13.44;100.00
49455;BME280;69710;64.656;21.218;2023-07-13T02:50:46;100871.48;;;13.70;100.00
49455;BME280;69710;64.656;21.218;2023-07-13T02:53:14;100867.21;;;13.97;100.00
49455;BME280;69710;64.656;21.218;2023-07-13T02:55:42;100866.44;;;14.07;100.00
49455;BME280;69710;64.656;21.218;2023-07-13T02:58:10;100861.13;;;14.68;100.00
49455;BME280;69710;64.656;21.218;2023-07-13T03:00:39;100862.12;;;15.37;100.00
49455;BME280;69710;64.656;21.218;2023-07-13T03:03:07;100857.74;;;16.00;100.00
49455;BME280;69710;64.656;21.218;2023-07-13T03:05:37;100864.49;;;15.12;100.00
49455;BME280;69710;64.656;21.218;2023-07-13T03:08:05;100864.11;;;15.19;100.00
49455;BME280;69710;64.656;21.218;2023-07-13T03:10:33;100863.04;;;15.54;100.00
49455;BME280;69710;64.656;21.218;2023-07-13T03:13:01;100863.62;;;16.07;100.00
49455;BME280;69710;64.656;21.218;2023-07-13T03:15:29;100857.03;;;17.28;100.00
49455;BME280;69710;64.656;21.218;2023-07-13T03:17:57;100852.39;;;17.13;100.00
49455;BME280;69710;64.656;21.218;2023-07-13T03:20:25;100853.66;;;16.11;100.00
49455;BME280;69710;64.656;21.218;2023-07-13T03:22:53;100860.58;;;15.69;100.00
49455;BME280;69710;64.656;21.218;2023-07-13T03:25:21;100861.28;;;15.18;100.00
49455;BME280;69710;64.656;21.218;2023-07-13T03:27:48;100858.67;;;15.46;100.00
49455;BME280;69710;64.656;21.218;2023-07-13T03:30:16;100856.75;;;14.62;100.00
49455;BME280;69710;64.656;21.218;2023-07-13T03:32:44;100856.59;;;15.29;100.00
49455;BME280;69710;64.656;21.218;2023-07-13T03:35:12;100855.13;;;14.93;100.00
49455;BME280;69710;64.656;21.218;2023-07-13T03:37:40;100852.46;;;14.96;100.00
49455;BME280;69710;64.656;21.218;2023-07-13T03:40:08;100857.82;;;15.30;100.00
49455;BME280;69710;64.656;21.218;2023-07-13T03:42:36;100851.62;;;15.09;100.00
49455;BME280;69710;64.656;21.218;2023-07-13T03:45:05;100852.52;;;15.12;100.00
49455;BME280;69710;64.656;21.218;2023-07-13T03:47:33;100848.51;;;15.30;100.00
49455;BME280;69710;64.656;21.218;2023-07-13T03:50:00;100846.32;;;15.26;100.00
49455;BME280;69710;64.656;21.218;2023-07-13T03:52:28;100847.86;;;15.56;100.00
49455;BME280;69710;64.656;21.218;2023-07-13T03:54:55;100846.40;;;15.42;100.00
49455;BME280;69710;64.656;21.218;2023-07-13T03:57:23;100843.64;;;15.49;100.00
49455;BME280;69710;64.656;21.218;2023-07-13T03:59:51;100840.58;;;15.86;100.00
49455;BME280;69710;64.656;21.218;2023-07-13T04:02:20;100840.27;;;16.10;100.00
49455;BME280;69710;64.656;21.218;2023-07-13T04:04:47;100831.14;;;16.00;100.00
49455;BME280;69710;64.656;21.218;2023-07-13T04:07:15;100833.13;;;15.21;100.00
49455;BME280;69710;64.656;21.218;2023-07-13T04:09:43;100827.46;;;15.23;100.00
49455;BME280;69710;64.656;21.218;2023-07-13T04:12:10;100828.09;;;15.20;100.00
49455;BME280;69710;64.656;21.218;2023-07-13T04:14:38;100822.90;;;15.17;100.00
49455;BME280;69710;64.656;21.218;2023-07-13T04:17:06;100822.99;;;15.06;100.00
49455;BME280;69710;64.656;21.218;2023-07-13T04:19:34;100819.78;;;14.77;100.00
49455;BME280;69710;64.656;21.218;2023-07-13T04:22:01;100822.16;;;15.60;100.00
49455;BME280;69710;64.656;21.218;2023-07-13T04:24:28;100819.07;;;15.36;100.00
49455;BME280;69710;64.656;21.218;2023-07-13T04:26:55;100815.68;;;15.69;100.00
49455;BME280;69710;64.656;21.218;2023-07-13T04:29:23;100816.59;;;15.93;100.00
49455;BME280;69710;64.656;21.218;2023-07-13T04:31:51;100811.66;;;15.67;100.00
49455;BME280;69710;64.656;21.218;2023-07-13T04:34:19;100811.40;;;15.86;100.00
49455;BME280;69710;64.656;21.218;2023-07-13T04:36:47;100813.95;;;15.32;100.00
49455;BME280;69710;64.656;21.218;2023-07-13T04:39:14;100814.09;;;15.39;100.00
49455;BME280;69710;64.656;21.218;2023-07-13T04:41:43;100818.42;;;15.87;100.00
49455;BME280;69710;64.656;21.218;2023-07-13T04:44:11;100815.96;;;15.34;100.00
49455;BME280;69710;64.656;21.218;2023-07-13T04:46:38;100808.92;;;15.69;100.00
49455;BME280;69710;64.656;21.218;2023-07-13T04:49:05;100811.70;;;15.17;100.00
49455;BME280;69710;64.656;21.218;2023-07-13T04:51:33;100806.69;;;15.59;100.00
49455;BME280;69710;64.656;21.218;2023-07-13T04:54:00;100806.87;;;15.16;100.00
49455;BME280;69710;64.656;21.218;2023-07-13T04:56:28;100802.28;;;14.87;100.00
49455;BME280;69710;64.656;21.218;2023-07-13T04:58:55;100801.27;;;15.13;100.00
49455;BME280;69710;64.656;21.218;2023-07-13T05:01:22;100799.17;;;14.96;100.00
49455;BME280;69710;64.656;21.218;2023-07-13T05:03:50;100796.24;;;15.51;100.00
49455;BME280;69710;64.656;21.218;2023-07-13T05:06:18;100792.93;;;15.04;100.00
49455;BME280;69710;64.656;21.218;2023-07-13T05:08:46;100794.09;;;15.17;100.00
49455;BME280;69710;64.656;21.218;2023-07-13T05:11:14;100794.30;;;14.86;100.00
49455;BME280;69710;64.656;21.218;2023-07-13T05:13:42;100795.74;;;15.37;100.00
49455;BME280;69710;64.656;21.218;2023-07-13T05:16:09;100793.88;;;14.99;100.00
49455;BME280;69710;64.656;21.218;2023-07-13T05:18:37;100797.96;;;15.32;100.00
49455;BME280;69710;64.656;21.218;2023-07-13T05:21:07;100799.12;;;15.39;100.00
49455;BME280;69710;64.656;21.218;2023-07-13T05:23:36;100797.82;;;15.13;100.00
49455;BME280;69710;64.656;21.218;2023-07-13T05:26:04;100795.13;;;15.75;100.00
49455;BME280;69710;64.656;21.218;2023-07-13T05:28:32;100793.43;;;15.94;100.00
49455;BME280;69710;64.656;21.218;2023-07-13T05:31:00;100791.69;;;15.82;100.00
49455;BME280;69710;64.656;21.218;2023-07-13T05:33:28;100793.58;;;15.82;100.00
49455;BME280;69710;64.656;21.218;2023-07-13T05:35:56;100792.84;;;16.29;100.00
49455;BME280;69710;64.656;21.218;2023-07-13T05:38:24;100792.78;;;16.32;100.00
49455;BME280;69710;64.656;21.218;2023-07-13T05:40:54;100789.92;;;16.75;100.00
49455;BME280;69710;64.656;21.218;2023-07-13T05:43:22;100789.17;;;17.42;100.00
49455;BME280;69710;64.656;21.218;2023-07-13T05:45:52;100791.50;;;17.28;100.00
49455;BME280;69710;64.656;21.218;2023-07-13T05:48:20;100791.63;;;16.43;100.00
49455;BME280;69710;64.656;21.218;2023-07-13T05:50:48;100788.10;;;16.97;100.00
49455;BME280;69710;64.656;21.218;2023-07-13T05:53:16;100790.21;;;16.58;100.00
49455;BME280;69710;64.656;21.218;2023-07-13T05:55:44;100787.21;;;16.15;100.00
49455;BME280;69710;64.656;21.218;2023-07-13T05:58:12;100788.69;;;16.57;100.00
49455;BME280;69710;64.656;21.218;2023-07-13T06:00:41;100793.76;;;15.87;100.00
49455;BME280;69710;64.656;21.218;2023-07-13T06:03:09;100796.96;;;16.09;100.00
49455;BME280;69710;64.656;21.218;2023-07-13T06:05:37;100796.39;;;16.05;100.00
49455;BME280;69710;64.656;21.218;2023-07-13T06:08:06;100798.21;;;15.75;100.00
49455;BME280;69710;64.656;21.218;2023-07-13T06:10:35;100800.22;;;15.99;100.00
49455;BME280;69710;64.656;21.218;2023-07-13T06:13:03;100796.60;;;15.84;100.00
49455;BME280;69710;64.656;21.218;2023-07-13T06:15:31;100792.97;;;15.75;100.00
49455;BME280;69710;64.656;21.218;2023-07-13T06:17:58;100786.34;;;15.95;100.00
49455;BME280;69710;64.656;21.218;2023-07-13T06:20:26;100785.45;;;15.82;100.00
49455;BME280;69710;64.656;21.218;2023-07-13T06:22:54;100778.49;;;16.13;100.00
49455;BME280;69710;64.656;21.218;2023-07-13T06:25:21;100782.27;;;15.69;100.00
49455;BME280;69710;64.656;21.218;2023-07-13T06:27:49;100778.01;;;16.12;100.00
49455;BME280;69710;64.656;21.218;2023-07-13T06:30:17;100774.32;;;16.14;100.00
49455;BME280;69710;64.656;21.218;2023-07-13T06:32:44;100774.07;;;16.98;100.00
49455;BME280;69710;64.656;21.218;2023-07-13T06:35:12;100777.00;;;16.52;100.00
49455;BME280;69710;64.656;21.218;2023-07-13T06:37:39;100780.77;;;16.18;100.00
49455;BME280;69710;64.656;21.218;2023-07-13T06:40:08;100779.21;;;15.98;100.00
49455;BME280;69710;64.656;21.218;2023-07-13T06:42:36;100778.42;;;17.24;100.00
49455;BME280;69710;64.656;21.218;2023-07-13T06:45:05;100776.72;;;17.11;100.00
49455;BME280;69710;64.656;21.218;2023-07-13T06:47:33;100781.45;;;16.77;100.00
49455;BME280;69710;64.656;21.218;2023-07-13T06:50:00;100778.03;;;17.24;100.00
49455;BME280;69710;64.656;21.218;2023-07-13T06:52:28;100775.68;;;17.30;100.00
49455;BME280;69710;64.656;21.218;2023-07-13T06:54:56;100776.42;;;17.99;100.00
49455;BME280;69710;64.656;21.218;2023-07-13T06:57:23;100774.77;;;17.89;100.00
49455;BME280;69710;64.656;21.218;2023-07-13T06:59:50;100772.62;;;16.04;100.00
49455;BME280;69710;64.656;21.218;2023-07-13T07:02:18;100766.87;;;16.62;100.00
49455;BME280;69710;64.656;21.218;2023-07-13T07:04:46;100759.58;;;16.50;100.00
49455;BME280;69710;64.656;21.218;2023-07-13T07:07:14;100749.39;;;16.87;100.00
49455;BME280;69710;64.656;21.218;2023-07-13T07:09:42;100752.99;;;16.72;100.00
49455;BME280;69710;64.656;21.218;2023-07-13T07:12:10;100743.40;;;16.82;100.00
49455;BME280;69710;64.656;21.218;2023-07-13T07:14:38;100740.15;;;16.77;100.00
49455;BME280;69710;64.656;21.218;2023-07-13T07:17:06;100740.01;;;16.27;100.00
49455;BME280;69710;64.656;21.218;2023-07-13T07:19:36;100738.79;;;16.84;100.00
49455;BME280;69710;64.656;21.218;2023-07-13T07:22:04;100739.43;;;16.64;100.00
49455;BME280;69710;64.656;21.218;2023-07-13T07:24:32;100740.49;;;16.21;100.00
49455;BME280;69710;64.656;21.218;2023-07-13T07:27:00;100742.82;;;16.30;100.00
49455;BME280;69710;64.656;21.218;2023-07-13T07:29:28;100738.12;;;16.53;100.00
49455;BME280;69710;64.656;21.218;2023-07-13T07:31:56;100737.39;;;16.49;100.00
49455;BME280;69710;64.656;21.218;2023-07-13T07:34:24;100733.89;;;16.32;100.00
49455;BME280;69710;64.656;21.218;2023-07-13T07:36:52;100736.05;;;16.45;100.00
49455;BME280;69710;64.656;21.218;2023-07-13T07:39:20;100735.03;;;16.42;100.00
49455;BME280;69710;64.656;21.218;2023-07-13T07:41:48;100729.91;;;17.09;100.00
49455;BME280;69710;64.656;21.218;2023-07-13T07:44:17;100732.24;;;17.30;100.00
49455;BME280;69710;64.656;21.218;2023-07-13T07:46:44;100739.15;;;17.01;100.00
49455;BME280;69710;64.656;21.218;2023-07-13T07:49:12;100735.01;;;16.45;100.00
49455;BME280;69710;64.656;21.218;2023-07-13T07:51:40;100731.51;;;16.64;100.00
49455;BME280;69710;64.656;21.218;2023-07-13T07:54:07;100733.52;;;16.48;100.00
49455;BME280;69710;64.656;21.218;2023-07-13T07:56:36;100736.95;;;16.30;100.00
49455;BME280;69710;64.656;21.218;2023-07-13T07:59:03;100740.30;;;17.82;100.00
49455;BME280;69710;64.656;21.218;2023-07-13T08:01:31;100747.95;;;18.16;100.00
49455;BME280;69710;64.656;21.218;2023-07-13T08:03:59;100750.14;;;17.87;100.00
49455;BME280;69710;64.656;21.218;2023-07-13T08:06:26;100751.77;;;18.00;100.00
49455;BME280;69710;64.656;21.218;2023-07-13T08:08:54;100749.13;;;17.89;100.00
49455;BME280;69710;64.656;21.218;2023-07-13T08:11:22;100749.58;;;18.09;100.00
49455;BME280;69710;64.656;21.218;2023-07-13T08:13:50;100751.44;;;18.10;100.00
49455;BME280;69710;64.656;21.218;2023-07-13T08:16:18;100752.75;;;17.89;100.00
49455;BME280;69710;64.656;21.218;2023-07-13T08:18:46;100755.68;;;18.31;100.00
49455;BME280;69710;64.656;21.218;2023-07-13T08:21:13;100754.04;;;18.14;100.00
49455;BME280;69710;64.656;21.218;2023-07-13T08:23:41;100767.08;;;17.43;100.00
49455;BME280;69710;64.656;21.218;2023-07-13T08:26:09;100768.80;;;17.71;100.00
49455;BME280;69710;64.656;21.218;2023-07-13T08:28:37;100765.96;;;17.40;100.00
49455;BME280;69710;64.656;21.218;2023-07-13T08:31:06;100769.86;;;17.72;100.00
49455;BME280;69710;64.656;21.218;2023-07-13T08:33:35;100768.66;;;18.00;100.00
49455;BME280;69710;64.656;21.218;2023-07-13T08:36:04;100765.15;;;17.78;100.00
49455;BME280;69710;64.656;21.218;2023-07-13T08:38:32;100769.47;;;17.28;100.00
49455;BME280;69710;64.656;21.218;2023-07-13T08:41:09;100767.11;;;17.77;100.00
49455;BME280;69710;64.656;21.218;2023-07-13T08:43:38;100762.78;;;17.15;100.00
49455;BME280;69710;64.656;21.218;2023-07-13T08:46:13;100756.32;;;17.93;100.00
49455;BME280;69710;64.656;21.218;2023-07-13T08:48:46;100757.08;;;18.24;100.00
49455;BME280;69710;64.656;21.218;2023-07-13T08:51:27;100748.13;;;17.67;100.00
49455;BME280;69710;64.656;21.218;2023-07-13T08:53:59;100755.34;;;17.78;100.00
49455;BME280;69710;64.656;21.218;2023-07-13T08:56:31;100751.61;;;17.08;100.00
49455;BME280;69710;64.656;21.218;2023-07-13T08:59:02;100749.00;;;17.31;100.00
49455;BME280;69710;64.656;21.218;2023-07-13T09:01:39;100742.91;;;17.27;100.00
49455;BME280;69710;64.656;21.218;2023-07-13T09:04:15;100750.31;;;17.14;100.00
49455;BME280;69710;64.656;21.218;2023-07-13T09:06:55;100749.11;;;17.41;100.00
49455;BME280;69710;64.656;21.218;2023-07-13T09:09:32;100744.43;;;17.15;100.00
49455;BME280;69710;64.656;21.218;2023-07-13T09:12:09;100738.34;;;16.96;100.00
49455;BME280;69710;64.656;21.218;2023-07-13T09:14:43;100735.38;;;16.51;100.00
49455;BME280;69710;64.656;21.218;2023-07-13T09:17:17;100725.75;;;18.06;100.00
49455;BME280;69710;64.656;21.218;2023-07-13T09:19:50;100725.86;;;17.72;100.00
49455;BME280;69710;64.656;21.218;2023-07-13T09:22:22;100731.89;;;17.55;100.00
49455;BME280;69710;64.656;21.218;2023-07-13T09:25:01;100733.69;;;17.61;100.00
49455;BME280;69710;64.656;21.218;2023-07-13T09:27:33;100735.89;;;17.53;100.00
49455;BME280;69710;64.656;21.218;2023-07-13T09:30:17;100736.39;;;17.17;100.00
49455;BME280;69710;64.656;21.218;2023-07-13T09:32:51;100734.17;;;17.24;100.00
49455;BME280;69710;64.656;21.218;2023-07-13T09:35:23;100728.59;;;17.42;100.00
49455;BME280;69710;64.656;21.218;2023-07-13T09:37:56;100722.52;;;17.62;100.00
49455;BME280;69710;64.656;21.218;2023-07-13T09:40:30;100721.74;;;16.92;100.00
49455;BME280;69710;64.656;21.218;2023-07-13T09:43:04;100715.15;;;17.17;100.00
49455;BME280;69710;64.656;21.218;2023-07-13T09:45:34;100713.84;;;17.15;100.00
49455;BME280;69710;64.656;21.218;2023-07-13T09:48:06;100715.21;;;16.97;100.00
49455;BME280;69710;64.656;21.218;2023-07-13T09:50:34;100714.73;;;17.59;100.00
49455;BME280;69710;64.656;21.218;2023-07-13T09:53:02;100718.88;;;17.47;100.00
49455;BME280;69710;64.656;21.218;2023-07-13T09:55:32;100721.21;;;17.56;100.00
49455;BME280;69710;64.656;21.218;2023-07-13T09:58:08;100718.10;;;17.54;100.00
49455;BME280;69710;64.656;21.218;2023-07-13T10:00:37;100716.04;;;17.16;100.00
49455;BME280;69710;64.656;21.218;2023-07-13T10:03:14;100718.79;;;17.49;100.00
49455;BME280;69710;64.656;21.218;2023-07-13T10:05:45;100719.92;;;17.41;100.00
49455;BME280;69710;64.656;21.218;2023-07-13T10:08:20;100713.27;;;17.23;100.00
49455;BME280;69710;64.656;21.218;2023-07-13T10:10:53;100714.37;;;17.24;100.00
49455;BME280;69710;64.656;21.218;2023-07-13T10:13:41;100713.31;;;17.47;100.00
49455;BME280;69710;64.656;21.218;2023-07-13T10:16:10;100717.22;;;17.48;100.00
49455;BME280;69710;64.656;21.218;2023-07-13T10:18:42;100713.98;;;17.18;100.00
49455;BME280;69710;64.656;21.218;2023-07-13T10:21:13;100710.95;;;17.56;100.00
49455;BME280;69710;64.656;21.218;2023-07-13T10:23:43;100712.72;;;17.29;100.00
49455;BME280;69710;64.656;21.218;2023-07-13T10:26:31;100717.12;;;17.15;100.00
49455;BME280;69710;64.656;21.218;2023-07-13T10:29:03;100717.21;;;17.02;100.00
49455;BME280;69710;64.656;21.218;2023-07-13T10:31:33;100713.10;;;17.22;100.00
49455;BME280;69710;64.656;21.218;2023-07-13T10:34:02;100718.23;;;17.03;100.00
49455;BME280;69710;64.656;21.218;2023-07-13T10:36:34;100716.00;;;17.01;100.00
49455;BME280;69710;64.656;21.218;2023-07-13T10:39:06;100717.21;;;16.91;100.00
49455;BME280;69710;64.656;21.218;2023-07-13T10:41:38;100713.70;;;17.14;100.00
49455;BME280;69710;64.656;21.218;2023-07-13T10:44:19;100719.39;;;17.10;100.00
49455;BME280;69710;64.656;21.218;2023-07-13T10:46:49;100718.59;;;17.26;100.00
49455;BME280;69710;64.656;21.218;2023-07-13T10:49:18;100715.40;;;17.92;100.00
49455;BME280;69710;64.656;21.218;2023-07-13T10:51:46;100718.39;;;17.98;100.00
49455;BME280;69710;64.656;21.218;2023-07-13T10:54:18;100718.86;;;17.45;100.00
49455;BME280;69710;64.656;21.218;2023-07-13T10:56:48;100720.33;;;17.60;100.00
49455;BME280;69710;64.656;21.218;2023-07-13T10:59:18;100719.60;;;17.48;100.00
49455;BME280;69710;64.656;21.218;2023-07-13T11:01:54;100719.36;;;17.50;100.00
49455;BME280;69710;64.656;21.218;2023-07-13T11:04:23;100724.67;;;17.27;100.00
49455;BME280;69710;64.656;21.218;2023-07-13T11:06:56;100720.84;;;17.36;100.00
49455;BME280;69710;64.656;21.218;2023-07-13T11:09:36;100719.94;;;17.66;100.00
49455;BME280;69710;64.656;21.218;2023-07-13T11:12:26;100719.01;;;17.38;100.00
49455;BME280;69710;64.656;21.218;2023-07-13T11:15:05;100719.76;;;17.42;100.00
49455;BME280;69710;64.656;21.218;2023-07-13T11:17:37;100711.38;;;18.21;100.00
49455;BME280;69710;64.656;21.218;2023-07-13T11:20:20;100712.19;;;18.40;100.00
49455;BME280;69710;64.656;21.218;2023-07-13T11:22:50;100708.48;;;18.16;100.00
49455;BME280;69710;64.656;21.218;2023-07-13T11:25:26;100707.91;;;17.93;100.00
49455;BME280;69710;64.656;21.218;2023-07-13T11:28:13;100706.12;;;17.82;100.00
49455;BME280;69710;64.656;21.218;2023-07-13T11:30:47;100702.71;;;18.39;100.00
49455;BME280;69710;64.656;21.218;2023-07-13T11:33:18;100701.06;;;18.43;100.00
49455;BME280;69710;64.656;21.218;2023-07-13T11:35:52;100699.92;;;18.09;100.00
49455;BME280;69710;64.656;21.218;2023-07-13T11:38:22;100694.69;;;18.07;100.00
49455;BME280;69710;64.656;21.218;2023-07-13T11:40:54;100696.27;;;18.51;100.00
49455;BME280;69710;64.656;21.218;2023-07-13T11:43:22;100695.04;;;18.75;100.00
49455;BME280;69710;64.656;21.218;2023-07-13T11:45:51;100693.12;;;19.28;99.32
49455;BME280;69710;64.656;21.218;2023-07-13T11:48:22;100695.75;;;19.32;99.53
49455;BME280;69710;64.656;21.218;2023-07-13T11:50:55;100696.14;;;19.15;93.42
49455;BME280;69710;64.656;21.218;2023-07-13T11:53:27;100704.14;;;19.00;95.58
49455;BME280;69710;64.656;21.218;2023-07-13T11:55:55;100699.20;;;18.93;93.30
49455;BME280;69710;64.656;21.218;2023-07-13T11:58:25;100699.52;;;18.76;97.09
49455;BME280;69710;64.656;21.218;2023-07-13T12:00:57;100695.85;;;19.01;93.46
49455;BME280;69710;64.656;21.218;2023-07-13T12:03:26;100698.65;;;19.14;90.90
49455;BME280;69710;64.656;21.218;2023-07-13T12:05:58;100706.17;;;18.85;93.25
49455;BME280;69710;64.656;21.218;2023-07-13T12:08:27;100708.64;;;18.77;94.42
49455;BME280;69710;64.656;21.218;2023-07-13T12:11:03;100711.45;;;18.78;94.99
49455;BME280;69710;64.656;21.218;2023-07-13T12:13:36;100710.09;;;19.59;92.87
49455;BME280;69710;64.656;21.218;2023-07-13T12:16:12;100709.88;;;19.75;93.06
49455;BME280;69710;64.656;21.218;2023-07-13T12:18:43;100709.76;;;19.40;91.89
49455;BME280;69710;64.656;21.218;2023-07-13T12:21:13;100711.38;;;19.40;91.83
49455;BME280;69710;64.656;21.218;2023-07-13T12:23:43;100711.10;;;19.44;94.30
49455;BME280;69710;64.656;21.218;2023-07-13T12:23:48;100710.44;;;19.29;96.03
49455;BME280;69710;64.656;21.218;2023-07-13T12:26:17;100710.10;;;19.26;93.36
49455;BME280;69710;64.656;21.218;2023-07-13T12:28:48;100704.29;;;18.93;100.00
49455;BME280;69710;64.656;21.218;2023-07-13T12:31:26;100706.72;;;18.09;100.00
49455;BME280;69710;64.656;21.218;2023-07-13T12:33:59;100704.49;;;18.73;100.00
49455;BME280;69710;64.656;21.218;2023-07-13T12:36:31;100703.79;;;18.26;100.00
49455;BME280;69710;64.656;21.218;2023-07-13T12:39:04;100701.16;;;18.25;100.00